Time;durP1;ratioP1;P1;durP2;ratioP2;P2;SDS_P1;SDS_P2;PMS_P1;PMS_P2;Temp;Humidity;BMP_temperature;BMP_pressure;BME280_temperature;BME280_humidity;BME280_pressure;Samples;Min_cycle;Max_cycle;Signal;HPM_P1;HPM_P2
2024/03/04 00:04:58;;;;;;;0.70;0.70;;;9.80;98.70;;;;;;10551702;28;20245;-78
2024/03/04 00:10:02;;;;;;;0.40;0.40;;;9.80;98.90;;;;;;10547525;28;20211;-78
2024/03/04 00:15:06;;;;;;;0.50;0.50;;;9.80;99.00;;;;;;10555494;28;20685;-80
2024/03/04 00:20:09;;;;;;;0.50;0.50;;;9.80;98.90;;;;;;10571320;28;20211;-80
2024/03/04 00:25:15;;;;;;;0.50;0.50;;;9.80;99.10;;;;;;10552555;28;20272;-79
2024/03/04 00:30:18;;;;;;;0.40;0.40;;;9.80;99.00;;;;;;10541272;28;20272;-80
2024/03/04 00:35:21;;;;;;;0.40;0.40;;;9.70;99.00;;;;;;10558363;28;20211;-80
2024/03/04 00:40:24;;;;;;;0.47;0.47;;;9.70;99.00;;;;;;10580973;28;20203;-78
2024/03/04 00:45:27;;;;;;;0.50;0.50;;;9.70;99.00;;;;;;10555362;28;20719;-79
2024/03/04 00:50:29;;;;;;;0.50;0.50;;;9.70;99.10;;;;;;10541803;28;20730;-79
2024/03/04 00:55:33;;;;;;;0.40;0.40;;;9.60;99.10;;;;;;10551618;28;20215;-78
2024/03/04 01:00:37;;;;;;;0.40;0.40;;;9.50;99.10;;;;;;10542318;28;20673;-80
2024/03/04 01:05:39;;;;;;;0.50;0.50;;;9.50;99.20;;;;;;10559447;28;20688;-78
2024/03/04 01:10:43;;;;;;;0.50;0.50;;;9.50;99.30;;;;;;10576201;28;20199;-78
2024/03/04 01:15:47;;;;;;;0.50;0.50;;;9.40;99.20;;;;;;10540034;28;20208;-78
2024/03/04 01:20:52;;;;;;;0.43;0.43;;;9.40;99.50;;;;;;10569171;28;20271;-78
2024/03/04 01:25:56;;;;;;;0.40;0.40;;;9.40;99.50;;;;;;10555952;28;20227;-80
2024/03/04 01:30:58;;;;;;;0.50;0.50;;;9.50;99.60;;;;;;10518549;28;20222;-78
2024/03/04 01:36:00;;;;;;;0.40;0.40;;;9.50;99.50;;;;;;10529940;28;20220;-79
2024/03/04 01:41:04;;;;;;;0.50;0.50;;;9.40;99.60;;;;;;10571688;28;20206;-81
2024/03/04 01:46:09;;;;;;;0.50;0.50;;;9.40;99.80;;;;;;10560539;28;20235;-80
2024/03/04 01:51:12;;;;;;;0.53;0.53;;;9.50;99.80;;;;;;10562185;28;20252;-80
2024/03/04 01:56:16;;;;;;;0.50;0.50;;;9.50;99.90;;;;;;10562259;28;20223;-79
2024/03/04 02:01:19;;;;;;;0.50;0.50;;;9.50;99.80;;;;;;10537403;28;20199;-78
2024/03/04 02:06:22;;;;;;;0.50;0.50;;;9.40;99.90;;;;;;10536294;28;20235;-77
2024/03/04 02:11:27;;;;;;;0.50;0.50;;;9.40;99.90;;;;;;10557194;28;20617;-80
2024/03/04 02:16:29;;;;;;;0.60;0.60;;;9.40;99.90;;;;;;10514115;28;20223;-79
2024/03/04 02:21:34;;;;;;;0.50;0.50;;;9.30;99.90;;;;;;10535303;28;20191;-79
2024/03/04 02:26:38;;;;;;;0.53;0.53;;;9.30;99.90;;;;;;10551560;28;20219;-80
2024/03/04 02:31:42;;;;;;;0.70;0.70;;;9.20;99.90;;;;;;10566905;28;20460;-78
2024/03/04 02:36:44;;;;;;;0.57;0.57;;;9.20;99.90;;;;;;10563341;28;20203;-80
2024/03/04 02:41:49;;;;;;;0.60;0.60;;;9.10;99.90;;;;;;10544309;28;20552;-77
2024/03/04 02:46:52;;;;;;;0.50;0.50;;;9.10;99.90;;;;;;10522276;28;20227;-79
2024/03/04 02:51:56;;;;;;;0.50;0.50;;;9.00;99.90;;;;;;10541112;28;20196;-78
2024/03/04 02:56:59;;;;;;;0.47;0.47;;;9.00;99.80;;;;;;10515219;28;20196;-79
2024/03/04 03:02:02;;;;;;;0.40;0.40;;;;;;;;;;10546796;28;20196;-81
2024/03/04 03:07:05;;;;;;;0.60;0.60;;;9.00;99.20;;;;;;10534480;28;20977;-79
2024/03/04 03:12:10;;;;;;;0.50;0.50;;;9.00;99.50;;;;;;10532349;28;20204;-78
2024/03/04 03:17:12;;;;;;;0.50;0.50;;;8.80;99.70;;;;;;10534060;28;20184;-78
2024/03/04 03:22:15;;;;;;;0.60;0.60;;;8.80;99.80;;;;;;10569643;28;20223;-78
2024/03/04 03:27:18;;;;;;;0.50;0.50;;;8.80;99.80;;;;;;10561776;28;20283;-78
2024/03/04 03:32:21;;;;;;;0.60;0.60;;;8.80;99.80;;;;;;10550273;28;20579;-78
2024/03/04 03:37:23;;;;;;;0.60;0.60;;;8.80;99.90;;;;;;10540067;28;20206;-78
2024/03/04 03:42:27;;;;;;;0.50;0.50;;;8.90;99.90;;;;;;10547503;28;20599;-79
2024/03/04 03:47:30;;;;;;;0.60;0.60;;;8.90;99.70;;;;;;10542622;28;20223;-78
2024/03/04 03:52:34;;;;;;;0.60;0.60;;;8.90;99.90;;;;;;10556718;28;20224;-80
2024/03/04 03:57:37;;;;;;;0.60;0.60;;;9.00;99.90;;;;;;10541053;28;20249;-78
2024/03/04 04:02:40;;;;;;;0.43;0.43;;;9.10;99.90;;;;;;10564341;28;20207;-78
2024/03/04 04:07:42;;;;;;;0.70;0.70;;;9.30;99.90;;;;;;10552367;28;20240;-78
2024/03/04 04:12:46;;;;;;;0.57;0.57;;;9.50;99.90;;;;;;10564471;28;20207;-79
2024/03/04 04:17:48;;;;;;;0.60;0.60;;;9.60;99.90;;;;;;10542564;28;20214;-80
2024/03/04 04:22:51;;;;;;;0.70;0.70;;;9.80;99.90;;;;;;10565068;28;20231;-81
2024/03/04 04:27:55;;;;;;;0.60;0.60;;;9.90;99.90;;;;;;10570948;28;20644;-80
2024/03/04 04:32:58;;;;;;;0.80;0.80;;;9.90;99.90;;;;;;10553220;28;20697;-80
2024/03/04 04:38:00;;;;;;;0.60;0.60;;;10.00;99.90;;;;;;10551954;28;20597;-80
2024/03/04 04:43:05;;;;;;;0.90;0.90;;;10.10;99.90;;;;;;10559774;28;20215;-80
2024/03/04 04:48:07;;;;;;;0.70;0.70;;;10.10;99.90;;;;;;10537022;28;20228;-80
2024/03/04 04:53:10;;;;;;;0.80;0.80;;;10.20;99.90;;;;;;10567888;28;20215;-78
2024/03/04 04:58:14;;;;;;;0.73;0.73;;;10.20;99.90;;;;;;10542592;28;20739;-77
2024/03/04 05:03:16;;;;;;;0.50;0.50;;;10.30;99.90;;;;;;10560113;28;20223;-80
2024/03/04 05:08:19;;;;;;;0.70;0.70;;;10.30;99.90;;;;;;10559896;28;20438;-80
2024/03/04 05:13:22;;;;;;;0.70;0.70;;;10.30;99.90;;;;;;10559558;28;20215;-78
2024/03/04 05:18:25;;;;;;;0.70;0.70;;;10.40;99.90;;;;;;10547729;28;20191;-79
2024/03/04 05:23:27;;;;;;;0.70;0.70;;;10.30;99.90;;;;;;10552081;28;20269;-80
2024/03/04 05:28:31;;;;;;;0.70;0.70;;;10.40;99.90;;;;;;10549818;28;20223;-79
2024/03/04 05:33:36;;;;;;;0.60;0.60;;;10.40;99.90;;;;;;10542602;28;20341;-79
2024/03/04 05:38:38;;;;;;;0.67;0.67;;;10.40;99.90;;;;;;10560346;28;20179;-77
2024/03/04 05:43:42;;;;;;;0.70;0.70;;;10.50;99.90;;;;;;10547631;28;20219;-79
2024/03/04 05:48:46;;;;;;;0.60;0.60;;;10.40;99.90;;;;;;10519010;28;20220;-79
2024/03/04 05:53:49;;;;;;;0.60;0.60;;;10.50;99.90;;;;;;10540510;28;20275;-81
2024/03/04 05:58:54;;;;;;;0.47;0.47;;;10.50;99.90;;;;;;10536522;28;20199;-79
2024/03/04 06:03:56;;;;;;;0.40;0.40;;;10.50;99.90;;;;;;10540269;28;20624;-83
2024/03/04 06:08:58;;;;;;;0.60;0.60;;;10.50;99.90;;;;;;10556004;28;20250;-84
2024/03/04 06:14:02;;;;;;;0.70;0.70;;;10.60;99.90;;;;;;10550742;28;20220;-80
2024/03/04 06:19:05;;;;;;;0.70;0.70;;;10.60;99.90;;;;;;10561091;28;20195;-79
2024/03/04 06:24:07;;;;;;;0.70;0.70;;;10.60;99.90;;;;;;10563202;28;20234;-79
2024/03/04 06:29:11;;;;;;;0.70;0.70;;;10.60;99.90;;;;;;10560198;28;20216;-79
2024/03/04 06:34:13;;;;;;;0.70;0.70;;;10.60;99.90;;;;;;10564984;28;20219;-79
2024/03/04 06:39:17;;;;;;;0.60;0.60;;;10.70;99.90;;;;;;10569784;28;20233;-77
2024/03/04 06:44:21;;;;;;;0.50;0.50;;;10.70;99.90;;;;;;10561763;28;20220;-80
2024/03/04 06:49:23;;;;;;;0.40;0.40;;;10.70;99.90;;;;;;10565184;28;20223;-80
2024/03/04 06:54:25;;;;;;;0.50;0.50;;;10.70;99.90;;;;;;10558492;28;20211;-79
2024/03/04 06:59:29;;;;;;;0.50;0.50;;;10.70;99.90;;;;;;10563431;28;20315;-81
2024/03/04 07:04:31;;;;;;;0.43;0.43;;;10.70;99.90;;;;;;10603860;22;20204;-79
2024/03/04 07:09:34;;;;;;;0.50;0.50;;;10.80;99.90;;;;;;10544935;28;20216;-76
2024/03/04 07:14:38;;;;;;;0.50;0.50;;;10.80;99.90;;;;;;10549817;28;20260;-76
2024/03/04 07:19:40;;;;;;;0.50;0.50;;;10.80;99.90;;;;;;10507420;28;20197;-77
2024/03/04 07:24:42;;;;;;;0.60;0.60;;;10.80;99.90;;;;;;10498951;28;20268;-77
2024/03/04 07:29:46;;;;;;;0.50;0.50;;;10.80;99.90;;;;;;10503549;28;20209;-78
2024/03/04 07:34:48;;;;;;;0.40;0.40;;;10.80;99.90;;;;;;10538091;28;20222;-78
2024/03/04 07:39:51;;;;;;;0.50;0.50;;;10.80;99.90;;;;;;10499340;28;20208;-78
2024/03/04 07:44:54;;;;;;;0.30;0.30;;;10.80;99.90;;;;;;10506094;28;20230;-77
2024/03/04 07:49:57;;;;;;;0.50;0.50;;;10.90;99.90;;;;;;10513736;28;20223;-78
2024/03/04 07:55:01;;;;;;;0.50;0.50;;;10.80;99.90;;;;;;10538516;28;20223;-78
2024/03/04 08:00:05;;;;;;;0.30;0.30;;;10.90;99.90;;;;;;10508399;28;20274;-77
2024/03/04 08:05:12;;;;;;;0.40;0.40;;;10.90;99.90;;;;;;10513698;28;20220;-77
2024/03/04 08:10:15;;;;;;;0.57;0.57;;;10.90;99.90;;;;;;10524261;28;20219;-77
2024/03/04 08:15:19;;;;;;;0.40;0.40;;;10.90;99.90;;;;;;10531493;28;20307;-78
2024/03/04 08:20:22;;;;;;;0.50;0.50;;;11.00;99.90;;;;;;10510166;28;20227;-77
2024/03/04 08:25:24;;;;;;;0.53;0.53;;;10.90;99.90;;;;;;10532060;28;20283;-78
2024/03/04 08:30:28;;;;;;;0.50;0.50;;;11.00;99.90;;;;;;10480504;28;20212;-77
2024/03/04 08:35:30;;;;;;;0.40;0.40;;;11.00;99.90;;;;;;10514973;28;20775;-77
2024/03/04 08:40:32;;;;;;;0.50;0.50;;;11.00;99.90;;;;;;10490156;28;20184;-77
2024/03/04 08:45:36;;;;;;;0.40;0.40;;;11.10;99.90;;;;;;10524730;28;21063;-76
2024/03/04 08:50:39;;;;;;;0.50;0.50;;;11.10;99.90;;;;;;10512810;28;20219;-77
2024/03/04 08:55:41;;;;;;;0.50;0.50;;;11.10;99.90;;;;;;10510346;28;20568;-77
2024/03/04 09:00:45;;;;;;;0.40;0.40;;;11.10;99.90;;;;;;10540253;28;20268;-78
2024/03/04 09:05:48;;;;;;;0.50;0.50;;;11.10;99.90;;;;;;10531280;28;20235;-77
2024/03/04 09:10:52;;;;;;;0.40;0.40;;;11.10;99.90;;;;;;10530322;28;20220;-78
2024/03/04 09:15:56;;;;;;;0.40;0.40;;;11.10;99.90;;;;;;10507256;28;20643;-77
2024/03/04 09:20:58;;;;;;;0.40;0.40;;;11.10;99.90;;;;;;10527334;28;20193;-78
2024/03/04 09:26:01;;;;;;;0.40;0.40;;;11.10;99.90;;;;;;10522627;28;20308;-77
2024/03/04 09:31:06;;;;;;;0.40;0.40;;;11.20;99.90;;;;;;10524670;28;20220;-77
2024/03/04 09:36:08;;;;;;;0.40;0.40;;;11.30;99.90;;;;;;10509205;28;20577;-77
2024/03/04 09:41:12;;;;;;;0.40;0.40;;;11.40;99.90;;;;;;10521881;28;20242;-77
2024/03/04 09:46:18;;;;;;;0.50;0.50;;;11.40;99.90;;;;;;10490811;28;20224;-77
2024/03/04 09:51:24;;;;;;;0.40;0.40;;;11.50;99.90;;;;;;10530598;28;20212;-77
2024/03/04 09:56:28;;;;;;;0.50;0.50;;;11.50;99.90;;;;;;10536458;28;20219;-77
2024/03/04 10:01:35;;;;;;;0.40;0.40;;;11.50;99.90;;;;;;10503381;28;20196;-76
2024/03/04 10:06:38;;;;;;;0.30;0.30;;;11.50;99.90;;;;;;10508895;28;20221;-77
2024/03/04 10:11:40;;;;;;;0.40;0.40;;;11.50;99.90;;;;;;10511661;28;20527;-77
2024/03/04 10:16:44;;;;;;;0.10;0.10;;;11.50;99.90;;;;;;10511223;28;20641;-77
2024/03/04 10:21:47;;;;;;;0.30;0.30;;;11.60;99.90;;;;;;10525496;28;20614;-76
2024/03/04 10:26:50;;;;;;;0.30;0.30;;;11.60;99.90;;;;;;10515494;28;20224;-77
2024/03/04 10:31:55;;;;;;;0.30;0.30;;;11.60;99.90;;;;;;10494815;28;20196;-76
2024/03/04 10:36:58;;;;;;;0.30;0.30;;;11.70;99.90;;;;;;10501204;28;20212;-77
2024/03/04 10:42:03;;;;;;;0.30;0.30;;;11.70;99.90;;;;;;10501702;28;20548;-77
2024/03/04 10:47:08;;;;;;;0.40;0.40;;;11.70;99.90;;;;;;10522755;28;20253;-77
2024/03/04 10:52:13;;;;;;;0.43;0.43;;;11.70;99.90;;;;;;10526163;28;20204;-77
2024/03/04 10:57:27;;;;;;;0.40;0.40;;;11.70;99.90;;;;;;10513930;28;20240;-78
2024/03/04 11:02:45;;;;;;;0.40;0.40;;;11.70;99.90;;;;;;10502537;28;20274;-78
2024/03/04 11:07:50;;;;;;;0.40;0.40;;;11.70;99.90;;;;;;10521246;28;20832;-78
2024/03/04 11:13:09;;;;;;;0.40;0.40;;;11.70;99.90;;;;;;10499347;28;20216;-77
2024/03/04 11:18:36;;;;;;;0.20;0.20;;;11.70;99.90;;;;;;10507412;28;20217;-78
2024/03/04 11:23:39;;;;;;;0.40;0.40;;;11.80;99.90;;;;;;10496130;28;20207;-77
2024/03/04 11:28:42;;;;;;;0.30;0.30;;;11.80;99.90;;;;;;10501427;28;20236;-77
2024/03/04 11:33:46;;;;;;;0.30;0.30;;;11.80;99.90;;;;;;10523397;28;20208;-76
2024/03/04 11:38:51;;;;;;;0.40;0.40;;;11.80;99.90;;;;;;10518671;28;20215;-78
2024/03/04 11:43:55;;;;;;;0.27;0.27;;;11.70;99.90;;;;;;10513850;28;20200;-78
2024/03/04 11:49:22;;;;;;;0.40;0.40;;;11.80;99.90;;;;;;10506311;28;20759;-77
2024/03/04 11:54:39;;;;;;;0.30;0.30;;;11.80;99.90;;;;;;10510587;28;20619;-77
2024/03/04 11:59:42;;;;;;;0.30;0.30;;;11.80;99.90;;;;;;10526835;28;20623;-77
2024/03/04 12:04:46;;;;;;;0.40;0.40;;;11.80;99.90;;;;;;10512518;28;20278;-77
2024/03/04 12:09:48;;;;;;;0.40;0.40;;;11.70;99.90;;;;;;10519058;28;20220;-77
2024/03/04 12:14:52;;;;;;;0.30;0.30;;;11.80;99.90;;;;;;10526322;28;20223;-77
2024/03/04 12:19:57;;;;;;;0.30;0.30;;;11.80;99.90;;;;;;10501476;28;20603;-77
2024/03/04 12:25:01;;;;;;;0.40;0.40;;;11.80;99.90;;;;;;10503299;28;20223;-76
2024/03/04 12:30:11;;;;;;;0.40;0.40;;;11.80;99.90;;;;;;10514851;28;20231;-77
2024/03/04 12:35:20;;;;;;;0.30;0.30;;;11.80;99.90;;;;;;10518855;28;20648;-76
2024/03/04 12:40:24;;;;;;;0.40;0.40;;;11.80;99.90;;;;;;10495333;28;20200;-78
2024/03/04 12:45:27;;;;;;;0.40;0.40;;;11.90;99.90;;;;;;10507462;28;20357;-77
2024/03/04 12:50:31;;;;;;;0.40;0.40;;;11.90;99.90;;;;;;10504608;28;20212;-77
2024/03/04 12:55:33;;;;;;;0.40;0.40;;;12.00;99.90;;;;;;10522169;28;20228;-78
2024/03/04 13:00:36;;;;;;;0.30;0.30;;;12.00;99.90;;;;;;10502449;28;20193;-78
2024/03/04 13:05:39;;;;;;;0.40;0.40;;;11.90;99.90;;;;;;10509756;28;20546;-77
2024/03/04 13:10:43;;;;;;;0.30;0.30;;;11.90;99.90;;;;;;10540755;28;20223;-78
2024/03/04 13:15:50;;;;;;;0.30;0.30;;;11.80;99.90;;;;;;10508163;28;20220;-77
2024/03/04 13:20:54;;;;;;;0.10;0.10;;;11.80;99.90;;;;;;10493426;28;20689;-78
2024/03/04 13:25:56;;;;;;;0.30;0.30;;;11.80;99.90;;;;;;10503202;28;20266;-77
2024/03/04 13:30:58;;;;;;;0.40;0.40;;;11.80;99.90;;;;;;10494503;28;20638;-77
2024/03/04 13:36:02;;;;;;;0.40;0.40;;;11.80;99.90;;;;;;10481775;28;20270;-79
2024/03/04 13:41:05;;;;;;;0.40;0.40;;;11.80;99.90;;;;;;10501815;28;20266;-77
2024/03/04 13:46:07;;;;;;;0.40;0.40;;;11.80;99.90;;;;;;10496191;28;20227;-79
2024/03/04 13:51:11;;;;;;;0.30;0.30;;;11.80;99.90;;;;;;10492702;28;20212;-78
2024/03/04 13:56:13;;;;;;;0.30;0.30;;;11.80;99.90;;;;;;10518448;28;20222;-78
2024/03/04 14:01:16;;;;;;;0.43;0.43;;;11.80;99.90;;;;;;10511251;28;20246;-77
2024/03/04 14:06:19;;;;;;;0.40;0.40;;;11.70;99.90;;;;;;10496678;28;20227;-78
2024/03/04 14:11:25;;;;;;;0.40;0.40;;;11.70;99.90;;;;;;10536870;28;20216;-77
2024/03/04 14:16:27;;;;;;;0.30;0.30;;;11.70;99.90;;;;;;10529395;28;20226;-78
2024/03/04 14:21:33;;;;;;;0.10;0.10;;;11.80;99.90;;;;;;10520253;28;20255;-76
2024/03/04 14:26:36;;;;;;;0.20;0.20;;;11.80;99.90;;;;;;10512752;28;20220;-77
2024/03/04 14:31:38;;;;;;;0.40;0.40;;;11.80;99.90;;;;;;10502394;28;20763;-77
2024/03/04 14:36:42;;;;;;;0.30;0.30;;;11.80;99.90;;;;;;10510885;28;20269;-76
2024/03/04 14:41:45;;;;;;;0.50;0.50;;;11.90;99.90;;;;;;10518071;28;20185;-78
2024/03/04 14:46:47;;;;;;;0.40;0.40;;;11.80;99.90;;;;;;10515533;28;20280;-77
2024/03/04 14:51:51;;;;;;;0.33;0.33;;;11.80;99.90;;;;;;10515669;28;20697;-78
2024/03/04 14:56:54;;;;;;;0.40;0.40;;;11.80;99.90;;;;;;10506560;28;20238;-78
2024/03/04 15:01:56;;;;;;;0.20;0.20;;;11.80;99.90;;;;;;10600551;22;20238;-82
2024/03/04 15:07:00;;;;;;;0.30;0.30;;;11.80;99.90;;;;;;10623979;28;20263;-82
2024/03/04 15:12:05;;;;;;;0.30;0.30;;;11.80;99.70;;;;;;10591336;27;20247;-82
2024/03/04 15:17:09;;;;;;;0.30;0.30;;;11.80;99.90;;;;;;10576460;28;20252;-82
2024/03/04 15:22:13;;;;;;;0.20;0.20;;;11.70;99.70;;;;;;10592410;28;20211;-82
2024/03/04 15:27:15;;;;;;;0.30;0.30;;;11.70;99.70;;;;;;10605859;27;20207;-83
2024/03/04 15:32:18;;;;;;;0.40;0.40;;;11.70;99.70;;;;;;10603529;27;20271;-81
2024/03/04 15:37:22;;;;;;;0.30;0.30;;;11.70;99.70;;;;;;10613348;27;20231;-79
2024/03/04 15:42:24;;;;;;;0.30;0.30;;;11.70;99.60;;;;;;10604216;27;20216;-82
2024/03/04 15:47:27;;;;;;;0.30;0.30;;;11.70;99.70;;;;;;10606909;27;20259;-82
2024/03/04 15:52:30;;;;;;;0.40;0.40;;;11.70;99.80;;;;;;10617717;27;20227;-80
2024/03/04 15:57:33;;;;;;;0.30;0.30;;;11.60;99.90;;;;;;10613790;27;20698;-81
2024/03/04 16:02:35;;;;;;;0.30;0.30;;;11.60;99.90;;;;;;10619101;27;20226;-81
2024/03/04 16:07:39;;;;;;;0.30;0.30;;;11.60;99.90;;;;;;10598192;27;20190;-81
2024/03/04 16:12:41;;;;;;;0.20;0.20;;;11.60;99.90;;;;;;10597175;27;20274;-81
2024/03/04 16:17:44;;;;;;;0.30;0.30;;;11.60;99.90;;;;;;10595115;27;20195;-82
2024/03/04 16:22:47;;;;;;;0.20;0.20;;;11.60;99.90;;;;;;10597953;27;20230;-81
2024/03/04 16:27:51;;;;;;;0.30;0.30;;;11.60;99.90;;;;;;10610092;27;20222;-82
2024/03/04 16:32:54;;;;;;;0.30;0.30;;;11.50;99.90;;;;;;10604743;27;20707;-81
2024/03/04 16:37:57;;;;;;;0.30;0.30;;;11.50;99.90;;;;;;10610519;27;20210;-79
2024/03/04 16:43:01;;;;;;;0.40;0.40;;;11.50;99.90;;;;;;10621029;27;20195;-81
2024/03/04 16:48:04;;;;;;;0.40;0.40;;;11.40;99.90;;;;;;10594153;27;20684;-79
2024/03/04 16:53:08;;;;;;;0.40;0.40;;;11.40;99.90;;;;;;10596924;27;20271;-80
2024/03/04 16:58:10;;;;;;;0.50;0.50;;;11.40;99.90;;;;;;10610617;27;20205;-82
2024/03/04 17:03:15;;;;;;;0.30;0.30;;;11.30;99.90;;;;;;10606077;27;20287;-81
2024/03/04 17:08:19;;;;;;;0.30;0.30;;;11.30;99.90;;;;;;10605887;27;20202;-80
2024/03/04 17:13:21;;;;;;;0.30;0.30;;;11.30;99.90;;;;;;10616343;27;20215;-80
2024/03/04 17:18:23;;;;;;;0.10;0.10;;;11.30;99.90;;;;;;10593770;27;20287;-81
2024/03/04 17:23:27;;;;;;;0.40;0.40;;;11.20;99.90;;;;;;10587452;27;20195;-81
2024/03/04 17:28:29;;;;;;;0.50;0.50;;;11.20;99.90;;;;;;10602584;27;20707;-80
2024/03/04 17:33:32;;;;;;;0.40;0.40;;;11.20;99.90;;;;;;10616307;27;20222;-81
2024/03/04 17:38:37;;;;;;;0.40;0.40;;;11.20;99.90;;;;;;10592083;27;20245;-80
2024/03/04 17:43:39;;;;;;;0.40;0.40;;;11.10;99.90;;;;;;10575677;28;20188;-79
2024/03/04 17:48:42;;;;;;;0.50;0.50;;;11.10;99.90;;;;;;10597576;27;20230;-80
2024/03/04 17:53:45;;;;;;;0.40;0.40;;;11.10;99.90;;;;;;10556759;27;20215;-81
2024/03/04 17:58:48;;;;;;;0.50;0.50;;;11.10;99.90;;;;;;10559964;27;20224;-79
2024/03/04 18:03:50;;;;;;;0.40;0.40;;;11.00;99.90;;;;;;10557628;28;20184;-82
2024/03/04 18:08:54;;;;;;;0.50;0.50;;;11.00;99.90;;;;;;10559270;27;20264;-79
2024/03/04 18:13:57;;;;;;;0.60;0.60;;;11.00;99.90;;;;;;10583061;27;20267;-82
2024/03/04 18:18:59;;;;;;;0.40;0.40;;;11.00;99.90;;;;;;10565295;27;20642;-81
2024/03/04 18:24:04;;;;;;;0.43;0.43;;;11.00;99.90;;;;;;10571518;27;20199;-78
2024/03/04 18:29:06;;;;;;;0.40;0.40;;;11.00;99.90;;;;;;10564895;28;20245;-79
2024/03/04 18:34:09;;;;;;;0.50;0.50;;;11.00;99.90;;;;;;10575858;27;20362;-79
2024/03/04 18:39:14;;;;;;;0.50;0.50;;;11.00;99.90;;;;;;10583183;28;20214;-79
2024/03/04 18:44:16;;;;;;;0.40;0.40;;;11.00;99.90;;;;;;10561872;28;20199;-80
2024/03/04 18:49:19;;;;;;;0.50;0.50;;;11.00;99.90;;;;;;10568218;27;20249;-78
2024/03/04 18:54:22;;;;;;;0.53;0.53;;;11.00;99.90;;;;;;10573000;27;20272;-78
2024/03/04 18:59:25;;;;;;;0.60;0.60;;;11.00;99.90;;;;;;10584818;27;20230;-81
2024/03/04 19:04:28;;;;;;;0.40;0.40;;;11.00;99.90;;;;;;10567794;28;20315;-80
2024/03/04 19:09:33;;;;;;;0.50;0.50;;;11.00;99.90;;;;;;10583612;27;20565;-79
2024/03/04 19:14:35;;;;;;;0.40;0.40;;;10.90;99.90;;;;;;10569798;27;20219;-81
2024/03/04 19:19:38;;;;;;;0.40;0.40;;;10.90;99.90;;;;;;10576821;27;20215;-81
2024/03/04 19:24:42;;;;;;;0.40;0.40;;;10.90;99.90;;;;;;10575984;27;20249;-79
2024/03/04 19:29:44;;;;;;;0.60;0.60;;;10.90;99.90;;;;;;10571843;27;20219;-79
2024/03/04 19:34:47;;;;;;;0.50;0.50;;;10.90;99.90;;;;;;10574274;27;20195;-80
2024/03/04 19:39:50;;;;;;;0.20;0.20;;;10.90;99.90;;;;;;10572864;27;20765;-77
2024/03/04 19:44:53;;;;;;;0.40;0.40;;;10.90;99.90;;;;;;10557043;27;20335;-79
2024/03/04 19:49:55;;;;;;;0.50;0.50;;;10.90;99.90;;;;;;10567784;27;20268;-78
2024/03/04 19:55:00;;;;;;;0.40;0.40;;;10.90;99.90;;;;;;10565053;27;20559;-77
2024/03/04 20:00:09;;;;;;;0.40;0.40;;;10.90;99.90;;;;;;10563911;27;20219;-79
2024/03/04 20:05:11;;;;;;;0.50;0.50;;;10.90;99.90;;;;;;10552754;28;20600;-79
2024/03/04 20:10:15;;;;;;;0.00;0.00;;;10.90;99.90;;;;;;10572452;27;20207;-76
2024/03/04 20:15:17;;;;;;;0.50;0.50;;;10.90;99.90;;;;;;10576501;27;20195;-79
2024/03/04 20:20:20;;;;;;;0.53;0.53;;;10.90;99.90;;;;;;10568632;28;20223;-81
2024/03/04 20:25:23;;;;;;;0.50;0.50;;;10.90;99.90;;;;;;10581379;27;20191;-79
2024/03/04 20:30:26;;;;;;;0.57;0.57;;;10.90;99.90;;;;;;10560204;27;20654;-81
2024/03/04 20:35:29;;;;;;;0.50;0.50;;;10.90;99.90;;;;;;10571654;27;20203;-79
2024/03/04 20:40:33;;;;;;;0.40;0.40;;;10.90;99.90;;;;;;10553502;27;20257;-78
2024/03/04 20:45:36;;;;;;;0.43;0.43;;;10.90;99.90;;;;;;10568650;27;20685;-80
2024/03/04 20:50:39;;;;;;;0.40;0.40;;;10.90;99.90;;;;;;10557998;27;20296;-79
2024/03/04 20:55:43;;;;;;;0.60;0.60;;;10.90;99.90;;;;;;10560670;28;20207;-79
2024/03/04 21:00:47;;;;;;;0.50;0.50;;;10.90;99.90;;;;;;10563179;27;20240;-78
2024/03/04 21:05:49;;;;;;;0.50;0.50;;;10.90;99.90;;;;;;10557274;27;20210;-78
2024/03/04 21:10:53;;;;;;;0.50;0.50;;;11.00;99.90;;;;;;10553640;27;20231;-79
2024/03/04 21:15:55;;;;;;;0.50;0.50;;;10.90;99.90;;;;;;10557541;22;20256;-76
2024/03/04 21:20:58;;;;;;;0.50;0.50;;;10.90;99.90;;;;;;10566689;28;20229;-77
2024/03/04 21:26:01;;;;;;;0.50;0.50;;;10.90;99.90;;;;;;10535488;28;20223;-78
2024/03/04 21:31:04;;;;;;;0.50;0.50;;;11.00;99.90;;;;;;10541481;28;20233;-78
2024/03/04 21:36:07;;;;;;;0.50;0.50;;;11.00;99.90;;;;;;10532942;28;20227;-78
2024/03/04 21:41:12;;;;;;;0.40;0.40;;;11.00;99.90;;;;;;10528572;28;20192;-78
2024/03/04 21:46:15;;;;;;;0.40;0.40;;;11.00;99.90;;;;;;10523699;28;20208;-77
2024/03/04 21:51:17;;;;;;;0.50;0.50;;;11.00;99.90;;;;;;10529249;28;20242;-77
2024/03/04 21:56:21;;;;;;;0.60;0.60;;;10.90;99.90;;;;;;10522224;28;20220;-77
2024/03/04 22:01:23;;;;;;;0.50;0.50;;;11.00;99.90;;;;;;10526637;28;20188;-77
2024/03/04 22:06:25;;;;;;;0.50;0.50;;;11.00;99.90;;;;;;10531282;28;20236;-78
2024/03/04 22:11:29;;;;;;;0.50;0.50;;;10.90;99.90;;;;;;10543446;28;20218;-77
2024/03/04 22:16:31;;;;;;;0.53;0.53;;;10.90;99.90;;;;;;10544141;28;20227;-76
2024/03/04 22:21:34;;;;;;;0.63;0.63;;;10.90;99.90;;;;;;10541643;28;20199;-77
2024/03/04 22:26:38;;;;;;;0.60;0.60;;;10.90;99.90;;;;;;10530069;28;20219;-77
2024/03/04 22:31:43;;;;;;;0.70;0.70;;;10.90;99.90;;;;;;10531851;28;20223;-77
2024/03/04 22:36:47;;;;;;;0.60;0.60;;;10.90;99.90;;;;;;10530601;28;20216;-77
2024/03/04 22:41:51;;;;;;;0.60;0.60;;;10.80;99.90;;;;;;10531263;28;20665;-76
2024/03/04 22:46:53;;;;;;;0.60;0.60;;;10.80;99.90;;;;;;10508769;28;20221;-77
2024/03/04 22:51:59;;;;;;;0.60;0.60;;;10.80;99.90;;;;;;10520834;28;20728;-78
2024/03/04 22:57:03;;;;;;;0.50;0.50;;;10.80;99.90;;;;;;10525257;28;20246;-79
2024/03/04 23:02:08;;;;;;;0.50;0.50;;;10.80;99.90;;;;;;10527910;28;20214;-76
2024/03/04 23:07:10;;;;;;;0.53;0.53;;;10.80;99.90;;;;;;10525953;28;20224;-77
2024/03/04 23:12:15;;;;;;;0.60;0.60;;;10.80;99.90;;;;;;10512803;28;20219;-77
2024/03/04 23:17:17;;;;;;;0.57;0.57;;;10.80;99.90;;;;;;10530653;28;20228;-77
2024/03/04 23:22:20;;;;;;;0.60;0.60;;;10.70;99.90;;;;;;10531748;28;20200;-77
2024/03/04 23:27:23;;;;;;;0.60;0.60;;;10.70;99.90;;;;;;10524709;28;20220;-77
2024/03/04 23:32:26;;;;;;;0.70;0.70;;;10.70;99.90;;;;;;10498106;28;20219;-77
2024/03/04 23:37:29;;;;;;;0.50;0.50;;;10.70;99.90;;;;;;10552665;28;20700;-77
2024/03/04 23:42:33;;;;;;;0.70;0.70;;;10.70;99.90;;;;;;10515214;28;20254;-77
2024/03/04 23:47:35;;;;;;;0.60;0.60;;;10.70;99.90;;;;;;10541226;28;20216;-77
2024/03/04 23:52:38;;;;;;;0.60;0.60;;;10.70;99.90;;;;;;10540567;28;20243;-77
2024/03/04 23:57:42;;;;;;;0.60;0.60;;;10.70;99.90;;;;;;10531579;28;20254;-77
